sensor_id;sensor_type;location;lat;lon;timestamp;P1;durP1;ratioP1;P2;durP2;ratioP2
65896;SDS011;52677;50.898;10.854;2022-11-20T00:00:22;40.78;;;15.13;;
65896;SDS011;52677;50.898;10.854;2022-11-20T00:02:22;40.33;;;14.43;;
65896;SDS011;52677;50.898;10.854;2022-11-20T00:04:23;31.02;;;13.88;;
65896;SDS011;52677;50.898;10.854;2022-11-20T00:06:23;31.83;;;14.52;;
65896;SDS011;52677;50.898;10.854;2022-11-20T00:08:25;31.83;;;14.25;;
65896;SDS011;52677;50.898;10.854;2022-11-20T00:10:25;36.63;;;14.25;;
65896;SDS011;52677;50.898;10.854;2022-11-20T00:12:26;33.28;;;14.20;;
65896;SDS011;52677;50.898;10.854;2022-11-20T00:14:26;33.80;;;14.82;;
65896;SDS011;52677;50.898;10.854;2022-11-20T00:16:27;32.20;;;14.27;;
65896;SDS011;52677;50.898;10.854;2022-11-20T00:18:30;26.40;;;13.07;;
65896;SDS011;52677;50.898;10.854;2022-11-20T00:20:30;30.05;;;12.95;;
65896;SDS011;52677;50.898;10.854;2022-11-20T00:22:30;25.40;;;12.25;;
65896;SDS011;52677;50.898;10.854;2022-11-20T00:24:31;27.15;;;11.80;;
65896;SDS011;52677;50.898;10.854;2022-11-20T00:26:31;27.75;;;12.65;;
65896;SDS011;52677;50.898;10.854;2022-11-20T00:28:31;25.55;;;11.98;;
65896;SDS011;52677;50.898;10.854;2022-11-20T00:30:32;25.67;;;11.55;;
65896;SDS011;52677;50.898;10.854;2022-11-20T00:32:32;22.88;;;11.35;;
65896;SDS011;52677;50.898;10.854;2022-11-20T00:34:33;20.73;;;10.82;;
65896;SDS011;52677;50.898;10.854;2022-11-20T00:36:33;24.02;;;11.18;;
65896;SDS011;52677;50.898;10.854;2022-11-20T00:38:34;20.73;;;10.48;;
65896;SDS011;52677;50.898;10.854;2022-11-20T00:40:34;30.38;;;12.90;;
65896;SDS011;52677;50.898;10.854;2022-11-20T00:42:35;25.20;;;12.52;;
65896;SDS011;52677;50.898;10.854;2022-11-20T00:44:35;23.13;;;11.27;;
65896;SDS011;52677;50.898;10.854;2022-11-20T00:46:35;25.25;;;12.00;;
65896;SDS011;52677;50.898;10.854;2022-11-20T00:48:36;21.45;;;11.05;;
65896;SDS011;52677;50.898;10.854;2022-11-20T00:50:36;22.83;;;10.93;;
65896;SDS011;52677;50.898;10.854;2022-11-20T00:52:37;18.80;;;8.93;;
65896;SDS011;52677;50.898;10.854;2022-11-20T00:54:37;23.98;;;10.65;;
65896;SDS011;52677;50.898;10.854;2022-11-20T00:56:37;26.48;;;13.07;;
65896;SDS011;52677;50.898;10.854;2022-11-20T00:58:38;24.73;;;10.80;;
65896;SDS011;52677;50.898;10.854;2022-11-20T01:00:40;18.67;;;9.60;;
65896;SDS011;52677;50.898;10.854;2022-11-20T01:02:40;15.15;;;8.30;;
65896;SDS011;52677;50.898;10.854;2022-11-20T01:04:40;16.70;;;7.72;;
65896;SDS011;52677;50.898;10.854;2022-11-20T01:06:41;14.50;;;6.60;;
65896;SDS011;52677;50.898;10.854;2022-11-20T01:08:41;16.40;;;7.25;;
65896;SDS011;52677;50.898;10.854;2022-11-20T01:10:42;16.38;;;8.32;;
65896;SDS011;52677;50.898;10.854;2022-11-20T01:12:42;17.83;;;9.00;;
65896;SDS011;52677;50.898;10.854;2022-11-20T01:14:42;21.52;;;8.80;;
65896;SDS011;52677;50.898;10.854;2022-11-20T01:16:44;20.25;;;9.65;;
65896;SDS011;52677;50.898;10.854;2022-11-20T01:18:51;19.60;;;8.93;;
65896;SDS011;52677;50.898;10.854;2022-11-20T01:20:52;18.17;;;8.85;;
65896;SDS011;52677;50.898;10.854;2022-11-20T01:22:53;19.05;;;9.63;;
65896;SDS011;52677;50.898;10.854;2022-11-20T01:24:53;15.77;;;8.63;;
65896;SDS011;52677;50.898;10.854;2022-11-20T01:26:53;22.83;;;9.93;;
65896;SDS011;52677;50.898;10.854;2022-11-20T01:28:54;21.55;;;9.18;;
65896;SDS011;52677;50.898;10.854;2022-11-20T01:30:55;21.00;;;9.65;;
65896;SDS011;52677;50.898;10.854;2022-11-20T01:32:56;19.85;;;9.75;;
65896;SDS011;52677;50.898;10.854;2022-11-20T01:34:57;22.15;;;9.02;;
65896;SDS011;52677;50.898;10.854;2022-11-20T01:36:57;24.20;;;9.23;;
65896;SDS011;52677;50.898;10.854;2022-11-20T01:38:58;20.90;;;8.63;;
65896;SDS011;52677;50.898;10.854;2022-11-20T01:41:01;18.58;;;8.50;;
65896;SDS011;52677;50.898;10.854;2022-11-20T01:43:09;17.25;;;8.57;;
65896;SDS011;52677;50.898;10.854;2022-11-20T01:48:01;20.15;;;10.23;;
65896;SDS011;52677;50.898;10.854;2022-11-20T01:52:13;21.42;;;9.32;;
65896;SDS011;52677;50.898;10.854;2022-11-20T01:54:22;15.13;;;9.02;;
65896;SDS011;52677;50.898;10.854;2022-11-20T01:56:29;16.60;;;8.47;;
65896;SDS011;52677;50.898;10.854;2022-11-20T01:58:33;17.00;;;8.55;;
65896;SDS011;52677;50.898;10.854;2022-11-20T02:00:40;21.30;;;9.10;;
65896;SDS011;52677;50.898;10.854;2022-11-20T02:02:41;16.38;;;8.05;;
65896;SDS011;52677;50.898;10.854;2022-11-20T02:04:46;16.80;;;8.85;;
65896;SDS011;52677;50.898;10.854;2022-11-20T02:06:49;15.45;;;8.40;;
65896;SDS011;52677;50.898;10.854;2022-11-20T02:08:55;18.15;;;8.10;;
65896;SDS011;52677;50.898;10.854;2022-11-20T02:10:55;13.45;;;7.85;;
65896;SDS011;52677;50.898;10.854;2022-11-20T02:12:55;14.38;;;6.45;;
65896;SDS011;52677;50.898;10.854;2022-11-20T02:15:15;14.07;;;7.22;;
65896;SDS011;52677;50.898;10.854;2022-11-20T02:17:15;12.25;;;5.93;;
65896;SDS011;52677;50.898;10.854;2022-11-20T02:19:23;16.27;;;7.40;;
65896;SDS011;52677;50.898;10.854;2022-11-20T02:21:35;10.70;;;7.10;;
65896;SDS011;52677;50.898;10.854;2022-11-20T02:26:11;15.63;;;6.88;;
65896;SDS011;52677;50.898;10.854;2022-11-20T02:28:16;37.40;;;8.48;;
65896;SDS011;52677;50.898;10.854;2022-11-20T02:30:17;12.55;;;6.85;;
65896;SDS011;52677;50.898;10.854;2022-11-20T02:32:21;16.45;;;7.75;;
65896;SDS011;52677;50.898;10.854;2022-11-20T02:34:24;14.63;;;7.70;;
65896;SDS011;52677;50.898;10.854;2022-11-20T02:36:26;15.88;;;7.03;;
65896;SDS011;52677;50.898;10.854;2022-11-20T02:38:28;13.02;;;7.47;;
65896;SDS011;52677;50.898;10.854;2022-11-20T02:40:28;13.85;;;6.72;;
65896;SDS011;52677;50.898;10.854;2022-11-20T02:42:28;13.02;;;6.90;;
65896;SDS011;52677;50.898;10.854;2022-11-20T02:44:29;14.98;;;6.85;;
65896;SDS011;52677;50.898;10.854;2022-11-20T02:46:29;18.65;;;6.95;;
65896;SDS011;52677;50.898;10.854;2022-11-20T02:48:31;18.20;;;8.30;;
65896;SDS011;52677;50.898;10.854;2022-11-20T02:50:31;17.63;;;7.07;;
65896;SDS011;52677;50.898;10.854;2022-11-20T02:52:31;18.75;;;7.38;;
65896;SDS011;52677;50.898;10.854;2022-11-20T02:54:32;12.57;;;6.53;;
65896;SDS011;52677;50.898;10.854;2022-11-20T02:56:32;13.38;;;6.53;;
65896;SDS011;52677;50.898;10.854;2022-11-20T02:58:32;17.08;;;7.28;;
65896;SDS011;52677;50.898;10.854;2022-11-20T03:00:32;18.02;;;7.47;;
65896;SDS011;52677;50.898;10.854;2022-11-20T03:02:33;18.08;;;7.40;;
65896;SDS011;52677;50.898;10.854;2022-11-20T03:04:34;14.13;;;6.38;;
65896;SDS011;52677;50.898;10.854;2022-11-20T03:06:34;14.23;;;7.15;;
65896;SDS011;52677;50.898;10.854;2022-11-20T03:08:35;13.90;;;6.78;;
65896;SDS011;52677;50.898;10.854;2022-11-20T03:10:35;14.57;;;7.15;;
65896;SDS011;52677;50.898;10.854;2022-11-20T03:12:35;14.57;;;6.85;;
65896;SDS011;52677;50.898;10.854;2022-11-20T03:14:36;15.05;;;6.90;;
65896;SDS011;52677;50.898;10.854;2022-11-20T03:16:36;11.93;;;5.88;;
65896;SDS011;52677;50.898;10.854;2022-11-20T03:18:37;15.05;;;7.03;;
65896;SDS011;52677;50.898;10.854;2022-11-20T03:20:37;12.18;;;7.05;;
65896;SDS011;52677;50.898;10.854;2022-11-20T03:22:38;16.60;;;7.82;;
65896;SDS011;52677;50.898;10.854;2022-11-20T03:24:38;10.75;;;5.93;;
65896;SDS011;52677;50.898;10.854;2022-11-20T03:26:38;16.77;;;7.70;;
65896;SDS011;52677;50.898;10.854;2022-11-20T03:28:39;14.65;;;6.90;;
65896;SDS011;52677;50.898;10.854;2022-11-20T03:30:40;17.08;;;7.28;;
65896;SDS011;52677;50.898;10.854;2022-11-20T03:32:41;15.07;;;6.85;;
65896;SDS011;52677;50.898;10.854;2022-11-20T03:34:41;14.65;;;7.38;;
65896;SDS011;52677;50.898;10.854;2022-11-20T03:36:42;14.77;;;7.22;;
65896;SDS011;52677;50.898;10.854;2022-11-20T03:38:42;14.00;;;6.50;;
65896;SDS011;52677;50.898;10.854;2022-11-20T03:40:43;14.73;;;6.65;;
65896;SDS011;52677;50.898;10.854;2022-11-20T03:42:43;14.35;;;6.78;;
65896;SDS011;52677;50.898;10.854;2022-11-20T03:44:46;13.82;;;6.57;;
65896;SDS011;52677;50.898;10.854;2022-11-20T03:46:47;12.18;;;5.93;;
65896;SDS011;52677;50.898;10.854;2022-11-20T03:48:47;12.68;;;5.90;;
65896;SDS011;52677;50.898;10.854;2022-11-20T03:50:48;10.43;;;5.30;;
65896;SDS011;52677;50.898;10.854;2022-11-20T03:52:49;9.48;;;4.55;;
65896;SDS011;52677;50.898;10.854;2022-11-20T03:54:49;11.00;;;5.45;;
65896;SDS011;52677;50.898;10.854;2022-11-20T03:56:49;11.07;;;4.85;;
65896;SDS011;52677;50.898;10.854;2022-11-20T03:58:50;10.52;;;4.53;;
65896;SDS011;52677;50.898;10.854;2022-11-20T04:00:50;11.07;;;4.80;;
65896;SDS011;52677;50.898;10.854;2022-11-20T04:02:51;11.88;;;4.75;;
65896;SDS011;52677;50.898;10.854;2022-11-20T04:04:51;6.80;;;4.38;;
65896;SDS011;52677;50.898;10.854;2022-11-20T04:06:51;9.73;;;4.70;;
65896;SDS011;52677;50.898;10.854;2022-11-20T04:08:53;9.27;;;4.88;;
65896;SDS011;52677;50.898;10.854;2022-11-20T04:10:55;14.13;;;6.35;;
65896;SDS011;52677;50.898;10.854;2022-11-20T04:12:55;12.65;;;5.90;;
65896;SDS011;52677;50.898;10.854;2022-11-20T04:14:55;14.50;;;6.80;;
65896;SDS011;52677;50.898;10.854;2022-11-20T04:16:55;12.43;;;6.40;;
65896;SDS011;52677;50.898;10.854;2022-11-20T04:18:57;12.95;;;6.45;;
65896;SDS011;52677;50.898;10.854;2022-11-20T04:20:59;16.67;;;6.65;;
65896;SDS011;52677;50.898;10.854;2022-11-20T04:22:59;13.93;;;6.50;;
65896;SDS011;52677;50.898;10.854;2022-11-20T04:25:00;12.48;;;5.93;;
65896;SDS011;52677;50.898;10.854;2022-11-20T04:27:00;13.68;;;6.68;;
65896;SDS011;52677;50.898;10.854;2022-11-20T04:29:00;14.48;;;6.40;;
65896;SDS011;52677;50.898;10.854;2022-11-20T04:33:04;10.93;;;5.55;;
65896;SDS011;52677;50.898;10.854;2022-11-20T04:35:04;10.52;;;5.68;;
65896;SDS011;52677;50.898;10.854;2022-11-20T04:37:05;9.25;;;5.35;;
65896;SDS011;52677;50.898;10.854;2022-11-20T04:39:05;10.70;;;5.30;;
65896;SDS011;52677;50.898;10.854;2022-11-20T04:41:07;11.55;;;5.10;;
65896;SDS011;52677;50.898;10.854;2022-11-20T04:43:11;12.65;;;5.45;;
65896;SDS011;52677;50.898;10.854;2022-11-20T04:45:11;9.05;;;5.07;;
65896;SDS011;52677;50.898;10.854;2022-11-20T04:47:11;10.77;;;5.45;;
65896;SDS011;52677;50.898;10.854;2022-11-20T04:49:12;11.20;;;5.95;;
65896;SDS011;52677;50.898;10.854;2022-11-20T04:51:12;12.85;;;5.35;;
65896;SDS011;52677;50.898;10.854;2022-11-20T04:53:13;13.02;;;5.32;;
65896;SDS011;52677;50.898;10.854;2022-11-20T04:55:13;11.65;;;5.53;;
65896;SDS011;52677;50.898;10.854;2022-11-20T04:57:14;11.88;;;6.25;;
65896;SDS011;52677;50.898;10.854;2022-11-20T04:59:14;13.23;;;5.85;;
65896;SDS011;52677;50.898;10.854;2022-11-20T05:01:19;13.15;;;6.05;;
65896;SDS011;52677;50.898;10.854;2022-11-20T05:03:21;13.63;;;6.07;;
65896;SDS011;52677;50.898;10.854;2022-11-20T05:05:21;13.95;;;6.53;;
65896;SDS011;52677;50.898;10.854;2022-11-20T05:07:21;12.65;;;6.38;;
65896;SDS011;52677;50.898;10.854;2022-11-20T05:09:22;11.27;;;6.40;;
65896;SDS011;52677;50.898;10.854;2022-11-20T05:11:22;16.77;;;8.02;;
65896;SDS011;52677;50.898;10.854;2022-11-20T05:13:23;14.48;;;6.88;;
65896;SDS011;52677;50.898;10.854;2022-11-20T05:15:23;14.23;;;6.82;;
65896;SDS011;52677;50.898;10.854;2022-11-20T05:17:23;19.45;;;8.02;;
65896;SDS011;52677;50.898;10.854;2022-11-20T05:19:24;14.07;;;7.15;;
65896;SDS011;52677;50.898;10.854;2022-11-20T05:21:24;14.02;;;7.22;;
65896;SDS011;52677;50.898;10.854;2022-11-20T05:23:24;14.82;;;7.30;;
65896;SDS011;52677;50.898;10.854;2022-11-20T05:25:25;14.77;;;6.45;;
65896;SDS011;52677;50.898;10.854;2022-11-20T05:27:26;13.30;;;6.53;;
65896;SDS011;52677;50.898;10.854;2022-11-20T05:29:26;16.15;;;7.57;;
65896;SDS011;52677;50.898;10.854;2022-11-20T05:31:26;15.85;;;6.95;;
65896;SDS011;52677;50.898;10.854;2022-11-20T05:33:27;15.73;;;6.00;;
65896;SDS011;52677;50.898;10.854;2022-11-20T05:35:27;15.23;;;6.68;;
65896;SDS011;52677;50.898;10.854;2022-11-20T05:37:27;12.50;;;6.18;;
65896;SDS011;52677;50.898;10.854;2022-11-20T05:39:28;9.75;;;5.38;;
65896;SDS011;52677;50.898;10.854;2022-11-20T05:41:28;12.02;;;5.32;;
65896;SDS011;52677;50.898;10.854;2022-11-20T05:43:31;9.32;;;4.95;;
65896;SDS011;52677;50.898;10.854;2022-11-20T05:45:32;9.75;;;5.25;;
65896;SDS011;52677;50.898;10.854;2022-11-20T05:47:33;11.50;;;5.60;;
65896;SDS011;52677;50.898;10.854;2022-11-20T05:49:34;12.75;;;5.20;;
65896;SDS011;52677;50.898;10.854;2022-11-20T05:51:34;16.88;;;6.20;;
65896;SDS011;52677;50.898;10.854;2022-11-20T05:53:35;12.50;;;5.30;;
65896;SDS011;52677;50.898;10.854;2022-11-20T05:55:36;10.77;;;5.55;;
65896;SDS011;52677;50.898;10.854;2022-11-20T05:57:36;11.43;;;6.13;;
65896;SDS011;52677;50.898;10.854;2022-11-20T05:59:36;14.18;;;5.85;;
65896;SDS011;52677;50.898;10.854;2022-11-20T06:01:37;13.60;;;6.57;;
65896;SDS011;52677;50.898;10.854;2022-11-20T06:03:37;12.00;;;5.63;;
65896;SDS011;52677;50.898;10.854;2022-11-20T06:05:39;14.20;;;5.93;;
65896;SDS011;52677;50.898;10.854;2022-11-20T06:07:39;11.10;;;4.72;;
65896;SDS011;52677;50.898;10.854;2022-11-20T06:09:39;7.10;;;4.03;;
65896;SDS011;52677;50.898;10.854;2022-11-20T06:11:40;9.85;;;4.95;;
65896;SDS011;52677;50.898;10.854;2022-11-20T06:13:40;13.63;;;4.80;;
65896;SDS011;52677;50.898;10.854;2022-11-20T06:15:41;9.88;;;4.60;;
65896;SDS011;52677;50.898;10.854;2022-11-20T06:17:41;10.20;;;3.97;;
65896;SDS011;52677;50.898;10.854;2022-11-20T06:19:42;10.02;;;4.65;;
65896;SDS011;52677;50.898;10.854;2022-11-20T06:21:42;8.40;;;4.50;;
65896;SDS011;52677;50.898;10.854;2022-11-20T06:23:43;9.32;;;4.07;;
65896;SDS011;52677;50.898;10.854;2022-11-20T06:25:43;11.82;;;4.68;;
65896;SDS011;52677;50.898;10.854;2022-11-20T06:27:44;10.57;;;5.18;;
65896;SDS011;52677;50.898;10.854;2022-11-20T06:29:44;12.68;;;5.03;;
65896;SDS011;52677;50.898;10.854;2022-11-20T06:31:44;15.20;;;5.63;;
65896;SDS011;52677;50.898;10.854;2022-11-20T06:33:45;11.15;;;5.70;;
65896;SDS011;52677;50.898;10.854;2022-11-20T06:35:46;12.93;;;6.05;;
65896;SDS011;52677;50.898;10.854;2022-11-20T06:37:46;12.45;;;6.00;;
65896;SDS011;52677;50.898;10.854;2022-11-20T06:39:46;11.95;;;5.95;;
65896;SDS011;52677;50.898;10.854;2022-11-20T06:41:47;13.57;;;7.28;;
65896;SDS011;52677;50.898;10.854;2022-11-20T06:43:47;14.70;;;6.32;;
65896;SDS011;52677;50.898;10.854;2022-11-20T06:45:52;16.00;;;6.28;;
65896;SDS011;52677;50.898;10.854;2022-11-20T06:47:53;14.20;;;6.63;;
65896;SDS011;52677;50.898;10.854;2022-11-20T06:49:53;15.43;;;7.45;;
65896;SDS011;52677;50.898;10.854;2022-11-20T06:51:53;13.60;;;5.75;;
65896;SDS011;52677;50.898;10.854;2022-11-20T06:53:54;13.98;;;6.47;;
65896;SDS011;52677;50.898;10.854;2022-11-20T06:55:55;15.55;;;7.13;;
65896;SDS011;52677;50.898;10.854;2022-11-20T06:57:56;20.83;;;8.40;;
65896;SDS011;52677;50.898;10.854;2022-11-20T06:59:56;16.27;;;6.05;;
65896;SDS011;52677;50.898;10.854;2022-11-20T07:01:57;16.17;;;7.35;;
65896;SDS011;52677;50.898;10.854;2022-11-20T07:03:57;15.93;;;7.68;;
65896;SDS011;52677;50.898;10.854;2022-11-20T07:05:58;12.52;;;6.45;;
65896;SDS011;52677;50.898;10.854;2022-11-20T07:07:59;18.23;;;7.10;;
65896;SDS011;52677;50.898;10.854;2022-11-20T07:10:00;14.85;;;6.72;;
65896;SDS011;52677;50.898;10.854;2022-11-20T07:12:00;18.10;;;7.00;;
65896;SDS011;52677;50.898;10.854;2022-11-20T07:14:01;19.42;;;7.80;;
65896;SDS011;52677;50.898;10.854;2022-11-20T07:16:02;17.60;;;7.80;;
65896;SDS011;52677;50.898;10.854;2022-11-20T07:20:04;16.35;;;6.65;;
65896;SDS011;52677;50.898;10.854;2022-11-20T07:22:04;15.88;;;7.10;;
65896;SDS011;52677;50.898;10.854;2022-11-20T07:24:05;14.05;;;7.72;;
65896;SDS011;52677;50.898;10.854;2022-11-20T07:26:06;11.00;;;6.13;;
65896;SDS011;52677;50.898;10.854;2022-11-20T07:28:10;15.82;;;7.15;;
65896;SDS011;52677;50.898;10.854;2022-11-20T07:30:11;16.92;;;7.47;;
65896;SDS011;52677;50.898;10.854;2022-11-20T07:32:12;15.30;;;5.80;;
65896;SDS011;52677;50.898;10.854;2022-11-20T07:34:12;12.25;;;6.20;;
65896;SDS011;52677;50.898;10.854;2022-11-20T07:36:12;12.70;;;5.93;;
65896;SDS011;52677;50.898;10.854;2022-11-20T07:38:13;10.23;;;5.63;;
65896;SDS011;52677;50.898;10.854;2022-11-20T07:40:13;13.02;;;6.85;;
65896;SDS011;52677;50.898;10.854;2022-11-20T07:42:14;11.75;;;5.55;;
65896;SDS011;52677;50.898;10.854;2022-11-20T07:44:14;12.05;;;5.47;;
65896;SDS011;52677;50.898;10.854;2022-11-20T07:46:15;13.18;;;6.07;;
65896;SDS011;52677;50.898;10.854;2022-11-20T07:48:15;8.02;;;4.80;;
65896;SDS011;52677;50.898;10.854;2022-11-20T07:50:16;8.60;;;5.30;;
65896;SDS011;52677;50.898;10.854;2022-11-20T07:52:17;10.95;;;5.68;;
65896;SDS011;52677;50.898;10.854;2022-11-20T07:54:17;11.40;;;5.90;;
65896;SDS011;52677;50.898;10.854;2022-11-20T07:56:17;10.38;;;5.35;;
65896;SDS011;52677;50.898;10.854;2022-11-20T07:58:18;11.60;;;5.80;;
65896;SDS011;52677;50.898;10.854;2022-11-20T08:00:20;9.80;;;5.47;;
65896;SDS011;52677;50.898;10.854;2022-11-20T08:02:20;8.50;;;4.90;;
65896;SDS011;52677;50.898;10.854;2022-11-20T08:04:20;7.53;;;3.40;;
65896;SDS011;52677;50.898;10.854;2022-11-20T08:06:21;7.68;;;4.47;;
65896;SDS011;52677;50.898;10.854;2022-11-20T08:08:21;8.65;;;5.20;;
65896;SDS011;52677;50.898;10.854;2022-11-20T08:10:22;15.70;;;4.68;;
65896;SDS011;52677;50.898;10.854;2022-11-20T08:12:23;6.65;;;4.10;;
65896;SDS011;52677;50.898;10.854;2022-11-20T08:14:41;7.25;;;4.03;;
65896;SDS011;52677;50.898;10.854;2022-11-20T08:16:43;8.80;;;3.92;;
65896;SDS011;52677;50.898;10.854;2022-11-20T08:18:45;5.40;;;3.15;;
65896;SDS011;52677;50.898;10.854;2022-11-20T08:20:46;8.15;;;4.40;;
65896;SDS011;52677;50.898;10.854;2022-11-20T08:22:46;6.78;;;4.10;;
65896;SDS011;52677;50.898;10.854;2022-11-20T08:24:46;6.55;;;3.67;;
65896;SDS011;52677;50.898;10.854;2022-11-20T08:26:47;7.65;;;3.80;;
65896;SDS011;52677;50.898;10.854;2022-11-20T08:28:48;9.73;;;5.50;;
65896;SDS011;52677;50.898;10.854;2022-11-20T08:30:49;19.55;;;8.80;;
65896;SDS011;52677;50.898;10.854;2022-11-20T08:32:49;26.00;;;10.60;;
65896;SDS011;52677;50.898;10.854;2022-11-20T08:34:50;20.02;;;9.05;;
65896;SDS011;52677;50.898;10.854;2022-11-20T08:36:50;12.00;;;6.10;;
65896;SDS011;52677;50.898;10.854;2022-11-20T08:38:51;13.38;;;6.32;;
65896;SDS011;52677;50.898;10.854;2022-11-20T08:40:55;15.23;;;8.07;;
65896;SDS011;52677;50.898;10.854;2022-11-20T08:43:15;9.52;;;5.95;;
65896;SDS011;52677;50.898;10.854;2022-11-20T08:45:16;13.07;;;5.95;;
65896;SDS011;52677;50.898;10.854;2022-11-20T08:47:18;14.90;;;6.88;;
65896;SDS011;52677;50.898;10.854;2022-11-20T08:49:18;9.68;;;5.85;;
65896;SDS011;52677;50.898;10.854;2022-11-20T08:51:19;11.77;;;5.95;;
65896;SDS011;52677;50.898;10.854;2022-11-20T08:53:20;26.95;;;11.85;;
65896;SDS011;52677;50.898;10.854;2022-11-20T08:55:20;15.90;;;8.63;;
65896;SDS011;52677;50.898;10.854;2022-11-20T08:57:20;19.70;;;9.70;;
65896;SDS011;52677;50.898;10.854;2022-11-20T08:59:21;16.40;;;9.63;;
65896;SDS011;52677;50.898;10.854;2022-11-20T09:01:22;16.38;;;9.73;;
65896;SDS011;52677;50.898;10.854;2022-11-20T09:03:23;16.02;;;8.98;;
65896;SDS011;52677;50.898;10.854;2022-11-20T09:05:24;16.70;;;8.15;;
65896;SDS011;52677;50.898;10.854;2022-11-20T09:07:24;14.63;;;7.57;;
65896;SDS011;52677;50.898;10.854;2022-11-20T09:09:25;12.48;;;7.30;;
65896;SDS011;52677;50.898;10.854;2022-11-20T09:11:25;16.00;;;8.70;;
65896;SDS011;52677;50.898;10.854;2022-11-20T09:13:26;17.92;;;8.05;;
65896;SDS011;52677;50.898;10.854;2022-11-20T09:15:27;18.02;;;8.45;;
65896;SDS011;52677;50.898;10.854;2022-11-20T09:17:28;19.83;;;8.77;;
65896;SDS011;52677;50.898;10.854;2022-11-20T09:19:28;17.50;;;7.82;;
65896;SDS011;52677;50.898;10.854;2022-11-20T09:21:28;13.07;;;7.72;;
65896;SDS011;52677;50.898;10.854;2022-11-20T09:23:33;16.85;;;9.05;;
65896;SDS011;52677;50.898;10.854;2022-11-20T09:25:35;14.95;;;8.23;;
65896;SDS011;52677;50.898;10.854;2022-11-20T09:27:35;17.60;;;9.23;;
65896;SDS011;52677;50.898;10.854;2022-11-20T09:29:35;16.05;;;8.90;;
65896;SDS011;52677;50.898;10.854;2022-11-20T09:31:36;21.38;;;9.82;;
65896;SDS011;52677;50.898;10.854;2022-11-20T09:33:36;16.83;;;8.63;;
65896;SDS011;52677;50.898;10.854;2022-11-20T09:35:37;17.92;;;7.72;;
65896;SDS011;52677;50.898;10.854;2022-11-20T09:37:37;17.13;;;7.95;;
65896;SDS011;52677;50.898;10.854;2022-11-20T09:39:38;17.83;;;9.63;;
65896;SDS011;52677;50.898;10.854;2022-11-20T09:46:56;11.95;;;6.57;;
65896;SDS011;52677;50.898;10.854;2022-11-20T09:51:36;18.98;;;9.65;;
65896;SDS011;52677;50.898;10.854;2022-11-20T09:53:50;18.52;;;9.75;;
65896;SDS011;52677;50.898;10.854;2022-11-20T09:55:53;12.27;;;6.47;;
65896;SDS011;52677;50.898;10.854;2022-11-20T09:57:54;14.48;;;7.45;;
65896;SDS011;52677;50.898;10.854;2022-11-20T10:02:00;12.60;;;6.10;;
65896;SDS011;52677;50.898;10.854;2022-11-20T10:04:23;14.73;;;6.80;;
65896;SDS011;52677;50.898;10.854;2022-11-20T10:06:28;12.88;;;7.40;;
65896;SDS011;52677;50.898;10.854;2022-11-20T10:08:34;37.72;;;16.08;;
65896;SDS011;52677;50.898;10.854;2022-11-20T10:15:42;13.40;;;6.68;;
65896;SDS011;52677;50.898;10.854;2022-11-20T10:29:18;18.38;;;8.80;;
65896;SDS011;52677;50.898;10.854;2022-11-20T10:31:50;19.83;;;10.52;;
65896;SDS011;52677;50.898;10.854;2022-11-20T10:33:56;18.75;;;10.10;;
65896;SDS011;52677;50.898;10.854;2022-11-20T10:38:30;18.35;;;7.93;;
65896;SDS011;52677;50.898;10.854;2022-11-20T10:42:44;15.65;;;7.43;;
65896;SDS011;52677;50.898;10.854;2022-11-20T10:44:58;19.00;;;7.75;;
65896;SDS011;52677;50.898;10.854;2022-11-20T10:47:14;17.50;;;9.02;;
65896;SDS011;52677;50.898;10.854;2022-11-20T10:49:16;25.30;;;9.95;;
65896;SDS011;52677;50.898;10.854;2022-11-20T10:55:55;22.73;;;11.18;;
65896;SDS011;52677;50.898;10.854;2022-11-20T10:58:07;21.15;;;9.05;;
65896;SDS011;52677;50.898;10.854;2022-11-20T11:02:15;16.30;;;9.02;;
65896;SDS011;52677;50.898;10.854;2022-11-20T11:06:43;22.30;;;10.40;;
65896;SDS011;52677;50.898;10.854;2022-11-20T11:08:47;19.13;;;9.38;;
65896;SDS011;52677;50.898;10.854;2022-11-20T11:10:59;15.10;;;7.45;;
65896;SDS011;52677;50.898;10.854;2022-11-20T11:13:02;14.40;;;7.63;;
65896;SDS011;52677;50.898;10.854;2022-11-20T11:15:03;16.85;;;8.13;;
65896;SDS011;52677;50.898;10.854;2022-11-20T11:17:03;19.83;;;8.90;;
65896;SDS011;52677;50.898;10.854;2022-11-20T11:19:10;15.75;;;8.18;;
65896;SDS011;52677;50.898;10.854;2022-11-20T11:21:12;17.65;;;10.27;;
65896;SDS011;52677;50.898;10.854;2022-11-20T11:23:22;19.33;;;10.93;;
65896;SDS011;52677;50.898;10.854;2022-11-20T11:25:36;24.55;;;11.52;;
65896;SDS011;52677;50.898;10.854;2022-11-20T11:27:45;18.75;;;10.52;;
65896;SDS011;52677;50.898;10.854;2022-11-20T11:29:47;24.48;;;11.90;;
65896;SDS011;52677;50.898;10.854;2022-11-20T11:31:48;25.13;;;12.88;;
65896;SDS011;52677;50.898;10.854;2022-11-20T11:33:48;25.70;;;13.38;;
65896;SDS011;52677;50.898;10.854;2022-11-20T11:35:49;27.40;;;13.02;;
65896;SDS011;52677;50.898;10.854;2022-11-20T11:38:02;31.77;;;13.82;;
65896;SDS011;52677;50.898;10.854;2022-11-20T11:40:08;31.35;;;14.32;;
65896;SDS011;52677;50.898;10.854;2022-11-20T11:42:12;30.55;;;13.50;;
65896;SDS011;52677;50.898;10.854;2022-11-20T11:44:17;25.42;;;12.30;;
65896;SDS011;52677;50.898;10.854;2022-11-20T11:46:38;25.38;;;12.07;;
65896;SDS011;52677;50.898;10.854;2022-11-20T11:48:54;25.00;;;13.38;;
65896;SDS011;52677;50.898;10.854;2022-11-20T11:51:19;26.73;;;12.10;;
65896;SDS011;52677;50.898;10.854;2022-11-20T11:53:21;25.75;;;12.95;;
65896;SDS011;52677;50.898;10.854;2022-11-20T11:57:49;23.85;;;11.73;;
65896;SDS011;52677;50.898;10.854;2022-11-20T12:02:15;24.60;;;12.02;;
65896;SDS011;52677;50.898;10.854;2022-11-20T12:06:48;24.50;;;11.10;;
65896;SDS011;52677;50.898;10.854;2022-11-20T12:08:57;23.10;;;9.73;;
65896;SDS011;52677;50.898;10.854;2022-11-20T12:13:17;23.02;;;12.13;;
65896;SDS011;52677;50.898;10.854;2022-11-20T12:15:30;23.25;;;11.38;;
65896;SDS011;52677;50.898;10.854;2022-11-20T12:17:33;22.83;;;10.68;;
65896;SDS011;52677;50.898;10.854;2022-11-20T12:19:34;24.35;;;11.60;;
65896;SDS011;52677;50.898;10.854;2022-11-20T12:36:06;22.30;;;9.52;;
65896;SDS011;52677;50.898;10.854;2022-11-20T12:43:17;18.45;;;8.88;;
65896;SDS011;52677;50.898;10.854;2022-11-20T12:45:46;20.17;;;10.20;;
65896;SDS011;52677;50.898;10.854;2022-11-20T12:50:32;18.77;;;9.43;;
65896;SDS011;52677;50.898;10.854;2022-11-20T12:55:11;27.00;;;11.27;;
65896;SDS011;52677;50.898;10.854;2022-11-20T13:06:35;40.35;;;17.23;;
65896;SDS011;52677;50.898;10.854;2022-11-20T13:08:37;44.15;;;19.15;;
65896;SDS011;52677;50.898;10.854;2022-11-20T13:10:43;38.67;;;16.85;;
65896;SDS011;52677;50.898;10.854;2022-11-20T13:15:23;43.60;;;16.13;;
65896;SDS011;52677;50.898;10.854;2022-11-20T13:17:42;42.15;;;17.60;;
65896;SDS011;52677;50.898;10.854;2022-11-20T13:19:53;40.15;;;17.30;;
65896;SDS011;52677;50.898;10.854;2022-11-20T13:21:55;44.83;;;18.45;;
65896;SDS011;52677;50.898;10.854;2022-11-20T13:24:03;46.00;;;19.17;;
65896;SDS011;52677;50.898;10.854;2022-11-20T13:26:13;50.30;;;20.70;;
65896;SDS011;52677;50.898;10.854;2022-11-20T13:30:21;43.00;;;17.00;;
65896;SDS011;52677;50.898;10.854;2022-11-20T13:32:23;42.13;;;17.83;;
65896;SDS011;52677;50.898;10.854;2022-11-20T13:34:24;49.25;;;21.83;;